Time;durP1;ratioP1;P1;durP2;ratioP2;P2;SDS_P1;SDS_P2;PMS_P1;PMS_P2;Temp;Humidity;BMP_temperature;BMP_pressure;BME280_temperature;BME280_humidity;BME280_pressure;Samples;Min_cycle;Max_cycle;Signal;HPM_P1;HPM_P2
2023/03/12 00:00:10;;;;;;;25.48;12.48;;;3.50;99.90;;;;;;4840783;29;20526;-55
2023/03/12 00:02:37;;;;;;;24.50;10.77;;;3.50;99.90;;;;;;4819809;29;20051;-55
2023/03/12 00:05:05;;;;;;;23.48;10.30;;;3.60;99.90;;;;;;4801135;29;20050;-56
2023/03/12 00:07:35;;;;;;;24.38;11.55;;;3.50;99.90;;;;;;4818558;29;20577;-54
2023/03/12 00:10:06;;;;;;;20.83;10.32;;;3.50;99.90;;;;;;4839605;29;20057;-53
2023/03/12 00:12:34;;;;;;;21.13;11.05;;;3.60;99.90;;;;;;4822441;29;20392;-54
2023/03/12 00:15:02;;;;;;;26.50;11.98;;;3.60;99.90;;;;;;4832843;29;20066;-55
2023/03/12 00:17:30;;;;;;;21.27;10.38;;;3.60;99.90;;;;;;4813361;29;20047;-58
2023/03/12 00:19:57;;;;;;;23.67;12.13;;;3.60;99.90;;;;;;4805304;29;20514;-54
2023/03/12 00:22:25;;;;;;;25.75;11.35;;;3.70;99.90;;;;;;4813207;29;20051;-56
2023/03/12 00:24:55;;;;;;;23.92;10.70;;;3.70;99.90;;;;;;4809145;29;20046;-59
2023/03/12 00:27:24;;;;;;;26.25;11.52;;;3.70;99.90;;;;;;4803665;29;20540;-54
2023/03/12 00:29:52;;;;;;;28.10;12.18;;;3.70;99.90;;;;;;4818918;29;20066;-57
2023/03/12 00:32:21;;;;;;;29.42;14.30;;;3.80;99.90;;;;;;4808250;29;20047;-55
2023/03/12 00:34:55;;;;;;;33.00;17.17;;;3.80;99.90;;;;;;4824346;29;20053;-55
2023/03/12 00:37:22;;;;;;;28.10;13.75;;;3.80;99.90;;;;;;4802857;29;20061;-55
2023/03/12 00:39:50;;;;;;;27.77;13.27;;;3.80;99.90;;;;;;4793417;29;20058;-54
2023/03/12 00:42:18;;;;;;;25.38;12.98;;;3.90;99.90;;;;;;4803336;29;20420;-56
2023/03/12 00:44:46;;;;;;;29.77;14.43;;;3.90;99.90;;;;;;4810522;29;20054;-54
2023/03/12 00:47:14;;;;;;;36.38;14.75;;;;;;;;;;4801648;29;20055;-55
2023/03/12 00:49:42;;;;;;;34.60;15.80;;;3.90;99.90;;;;;;4838006;29;20057;-55
2023/03/12 00:52:10;;;;;;;39.45;18.92;;;3.90;99.90;;;;;;4816745;29;20054;-55
2023/03/12 00:54:38;;;;;;;29.73;13.90;;;4.00;99.90;;;;;;4833142;29;20506;-56
2023/03/12 00:57:05;;;;;;;31.08;14.10;;;4.00;99.90;;;;;;4820600;29;20057;-56
2023/03/12 00:59:39;;;;;;;22.42;10.18;;;4.00;99.90;;;;;;4834542;29;20068;-56
2023/03/12 01:02:07;;;;;;;16.95;8.32;;;4.00;99.90;;;;;;4813449;29;20471;-55
2023/03/12 01:04:35;;;;;;;18.63;8.65;;;4.00;99.90;;;;;;4824160;29;20053;-56
2023/03/12 01:07:03;;;;;;;14.85;6.78;;;4.20;99.90;;;;;;4833675;29;20518;-55
2023/03/12 01:09:31;;;;;;;18.70;8.38;;;;;;;;;;4804041;29;20401;-55
2023/03/12 01:11:59;;;;;;;13.68;6.10;;;4.30;99.90;;;;;;4809074;29;20407;-54
2023/03/12 01:14:27;;;;;;;13.48;6.78;;;4.30;99.90;;;;;;4827351;29;20061;-55
2023/03/12 01:16:55;;;;;;;11.18;6.10;;;4.40;99.90;;;;;;4807845;29;20451;-55
2023/03/12 01:19:23;;;;;;;12.93;5.57;;;4.50;99.90;;;;;;4826919;29;20055;-55
2023/03/12 01:21:51;;;;;;;12.60;4.95;;;4.60;99.90;;;;;;4812782;29;20054;-55
2023/03/12 01:24:18;;;;;;;12.13;4.90;;;4.70;99.90;;;;;;4822866;29;20058;-55
2023/03/12 01:26:46;;;;;;;8.30;4.28;;;4.80;99.90;;;;;;4820941;29;20478;-53
2023/03/12 01:29:14;;;;;;;11.95;5.47;;;4.80;99.90;;;;;;4831069;29;20535;-54
2023/03/12 01:31:41;;;;;;;11.35;4.85;;;4.90;99.90;;;;;;4803315;29;20046;-56
2023/03/12 01:34:11;;;;;;;10.18;3.85;;;5.00;99.90;;;;;;4822899;29;20050;-55
2023/03/12 01:36:40;;;;;;;19.08;4.82;;;5.10;99.90;;;;;;4806138;29;20062;-55
2023/03/12 01:39:07;;;;;;;10.63;4.25;;;5.10;99.90;;;;;;4820157;29;20061;-55
2023/03/12 01:41:36;;;;;;;18.63;4.75;;;5.10;99.90;;;;;;4801023;29;20059;-56
2023/03/12 01:44:05;;;;;;;8.93;3.38;;;5.20;99.90;;;;;;4821341;29;20128;-55
2023/03/12 01:46:34;;;;;;;19.73;5.05;;;5.20;99.90;;;;;;4826273;29;20058;-54
2023/03/12 01:49:16;;;;;;;12.27;3.53;;;5.20;99.90;;;;;;4829466;29;20054;-54
2023/03/12 01:51:53;;;;;;;18.98;5.13;;;5.20;99.90;;;;;;4808587;29;20058;-55
2023/03/12 01:54:32;;;;;;;15.55;4.15;;;5.20;99.90;;;;;;4812796;29;20517;-55
2023/03/12 01:57:03;;;;;;;8.25;3.40;;;5.30;99.90;;;;;;4818541;29;20042;-55
2023/03/12 01:59:55;;;;;;;13.77;4.45;;;5.30;99.90;;;;;;4834748;29;20438;-57
2023/03/12 02:02:27;;;;;;;23.23;5.13;;;5.40;99.90;;;;;;4819398;29;20053;-55
2023/03/12 02:05:46;;;;;;;21.70;3.60;;;5.40;99.90;;;;;;4835300;29;20551;-54
2023/03/12 02:08:16;;;;;;;17.60;4.18;;;5.40;99.90;;;;;;4832973;29;20042;-56
2023/03/12 02:10:44;;;;;;;13.57;3.45;;;5.50;99.90;;;;;;4803113;29;20538;-54
2023/03/12 02:13:13;;;;;;;22.73;4.10;;;5.50;99.90;;;;;;4812563;29;20168;-54
2023/03/12 02:15:46;;;;;;;17.38;3.72;;;5.50;99.90;;;;;;4807866;29;20576;-55
2023/03/12 02:18:18;;;;;;;21.65;4.20;;;5.50;99.90;;;;;;4829946;29;21550;-55
2023/03/12 02:21:06;;;;;;;16.17;4.22;;;5.60;99.90;;;;;;4804478;29;20066;-55
2023/03/12 02:24:11;;;;;;;30.70;4.80;;;5.60;99.90;;;;;;4806768;29;20054;-55
2023/03/12 02:26:40;;;;;;;24.92;3.88;;;5.60;99.90;;;;;;4851704;29;20057;-56
2023/03/12 02:29:09;;;;;;;26.20;3.97;;;5.70;99.90;;;;;;4826459;29;20066;-56
2023/03/12 02:31:44;;;;;;;24.35;4.07;;;5.80;99.90;;;;;;4818049;29;20058;-57
2023/03/12 02:34:13;;;;;;;25.05;3.72;;;5.90;99.90;;;;;;4802327;29;20062;-55
2023/03/12 02:36:40;;;;;;;24.70;3.45;;;5.80;99.90;;;;;;4833570;29;20513;-55
2023/03/12 02:39:11;;;;;;;14.98;2.25;;;5.90;99.90;;;;;;4822586;29;20492;-59
2023/03/12 02:41:42;;;;;;;25.42;4.13;;;6.00;99.90;;;;;;4816991;29;20050;-55
2023/03/12 02:44:30;;;;;;;23.88;3.50;;;6.10;99.90;;;;;;4811014;29;20980;-58
2023/03/12 02:47:00;;;;;;;26.95;3.92;;;6.10;99.90;;;;;;4815769;29;20635;-55
2023/03/12 02:49:30;;;;;;;23.58;4.53;;;6.20;99.90;;;;;;4817931;29;20057;-55
2023/03/12 02:52:00;;;;;;;29.90;4.65;;;6.20;99.90;;;;;;4816271;29;20042;-57
2023/03/12 02:54:28;;;;;;;23.00;3.85;;;6.20;99.90;;;;;;4821229;29;20435;-56
2023/03/12 02:56:56;;;;;;;21.08;3.58;;;6.30;99.90;;;;;;4820640;29;20046;-57
2023/03/12 02:59:25;;;;;;;20.67;4.88;;;6.30;99.90;;;;;;4812701;29;20050;-58
2023/03/12 03:01:58;;;;;;;35.05;4.88;;;6.30;99.90;;;;;;4803779;29;20519;-56
2023/03/12 03:04:28;;;;;;;20.65;3.20;;;6.40;99.90;;;;;;4812230;29;20046;-55
2023/03/12 03:06:56;;;;;;;31.92;3.20;;;6.40;99.90;;;;;;4835027;29;20057;-57
2023/03/12 03:09:24;;;;;;;26.60;4.55;;;6.40;99.90;;;;;;4816201;29;20050;-55
2023/03/12 03:11:52;;;;;;;35.88;4.40;;;6.40;99.90;;;;;;4807266;29;20042;-55
2023/03/12 03:14:22;;;;;;;16.58;3.83;;;6.40;99.90;;;;;;4811464;29;20537;-54
2023/03/12 03:16:50;;;;;;;37.75;5.05;;;6.40;99.90;;;;;;4819783;29;20073;-54
2023/03/12 03:19:21;;;;;;;26.85;3.60;;;6.40;99.90;;;;;;4820597;29;20050;-54
2023/03/12 03:21:49;;;;;;;30.25;4.55;;;6.40;99.90;;;;;;4817165;29;20059;-53
2023/03/12 03:24:17;;;;;;;45.92;7.25;;;6.40;99.90;;;;;;4808856;29;20409;-53
2023/03/12 03:26:45;;;;;;;28.25;3.88;;;6.40;99.90;;;;;;4817211;29;20047;-54
2023/03/12 03:29:15;;;;;;;30.07;4.40;;;6.40;99.90;;;;;;4803097;29;20104;-54
2023/03/12 03:31:43;;;;;;;36.25;3.13;;;6.40;99.90;;;;;;4806664;29;20042;-55
2023/03/12 03:34:11;;;;;;;39.35;5.50;;;6.40;99.90;;;;;;4820876;29;20077;-54
2023/03/12 03:36:39;;;;;;;23.60;4.25;;;6.40;99.90;;;;;;4834184;29;20049;-55
2023/03/12 03:39:11;;;;;;;36.80;5.05;;;6.40;99.90;;;;;;4832965;29;20063;-55
2023/03/12 03:41:39;;;;;;;35.45;5.15;;;6.50;99.90;;;;;;4821162;29;20051;-56
2023/03/12 03:44:07;;;;;;;38.22;4.22;;;6.50;99.90;;;;;;4820852;29;20050;-55
2023/03/12 03:46:36;;;;;;;25.02;3.70;;;6.50;99.90;;;;;;4822306;29;20054;-55
2023/03/12 03:49:07;;;;;;;26.20;5.00;;;6.60;99.90;;;;;;4818679;29;20050;-55
2023/03/12 03:51:36;;;;;;;21.13;3.75;;;6.60;99.90;;;;;;4821036;29;20526;-53
2023/03/12 03:54:09;;;;;;;12.90;2.57;;;6.60;99.90;;;;;;4819925;29;20050;-54
2023/03/12 03:56:39;;;;;;;21.52;3.35;;;6.70;99.90;;;;;;4820949;29;20376;-54
2023/03/12 03:59:08;;;;;;;17.05;3.00;;;6.70;99.90;;;;;;4811529;29;20058;-55
2023/03/12 04:01:38;;;;;;;22.30;4.22;;;6.70;99.90;;;;;;4808618;29;20062;-54
2023/03/12 04:04:06;;;;;;;35.47;4.50;;;6.80;99.90;;;;;;4809695;29;20050;-54
2023/03/12 04:06:35;;;;;;;27.27;3.45;;;6.80;99.90;;;;;;4835577;29;20049;-53
2023/03/12 04:09:03;;;;;;;30.20;4.13;;;6.80;99.90;;;;;;4815373;29;20046;-55
2023/03/12 04:11:33;;;;;;;23.80;3.85;;;6.70;99.90;;;;;;4824658;29;20054;-54
2023/03/12 04:14:02;;;;;;;48.50;6.55;;;6.80;99.90;;;;;;4821384;29;20045;-55
2023/03/12 04:16:32;;;;;;;28.83;3.65;;;6.80;99.90;;;;;;4805476;29;20058;-54
2023/03/12 04:19:01;;;;;;;22.90;4.53;;;6.80;99.90;;;;;;4806938;29;20039;-55
2023/03/12 04:21:28;;;;;;;44.67;4.63;;;6.80;99.90;;;;;;4807059;29;20070;-55
2023/03/12 04:23:56;;;;;;;25.27;4.45;;;6.80;99.90;;;;;;4818288;29;20077;-54
2023/03/12 04:26:29;;;;;;;28.80;2.95;;;6.80;99.90;;;;;;4807883;29;20047;-54
2023/03/12 04:28:59;;;;;;;33.03;4.45;;;6.80;99.90;;;;;;4810948;29;20077;-55
2023/03/12 04:31:28;;;;;;;29.90;3.45;;;6.80;99.90;;;;;;4807819;29;20483;-56
2023/03/12 04:33:56;;;;;;;30.67;4.18;;;6.80;99.90;;;;;;4806642;29;20050;-53
2023/03/12 04:36:25;;;;;;;35.38;3.97;;;6.80;99.90;;;;;;4833866;29;20069;-58
2023/03/12 04:38:55;;;;;;;26.15;4.05;;;6.80;99.90;;;;;;4830543;29;20511;-53
2023/03/12 04:41:27;;;;;;;64.85;5.82;;;6.80;99.90;;;;;;4814129;29;20792;-55
2023/03/12 04:44:09;;;;;;;19.85;3.10;;;6.80;99.90;;;;;;4821631;29;20047;-55
2023/03/12 04:46:40;;;;;;;33.20;4.82;;;6.80;99.90;;;;;;4823223;29;20053;-57
2023/03/12 04:49:10;;;;;;;33.83;4.78;;;6.80;99.90;;;;;;4815007;29;20058;-54
2023/03/12 04:51:39;;;;;;;;;;;6.80;99.90;;;;;;4813755;29;20054;-57
2023/03/12 04:54:07;;;;;;;27.50;4.50;;;6.80;99.90;;;;;;4822926;29;20006;-56
2023/03/12 04:56:37;;;;;;;38.30;4.85;;;6.80;99.90;;;;;;4823122;29;20058;-57
2023/03/12 04:59:05;;;;;;;39.53;3.70;;;6.90;99.90;;;;;;4820294;29;20058;-56
2023/03/12 05:01:35;;;;;;;42.38;5.75;;;6.90;99.90;;;;;;4805229;29;20075;-54
2023/03/12 05:04:08;;;;;;;35.97;4.18;;;;;;;;;;4821036;29;20047;-55
2023/03/12 05:06:36;;;;;;;31.83;3.53;;;6.90;99.90;;;;;;4834611;29;20054;-57
2023/03/12 05:09:04;;;;;;;40.53;5.80;;;6.90;99.90;;;;;;4821855;29;20058;-55
2023/03/12 05:11:32;;;;;;;41.00;3.22;;;6.90;99.90;;;;;;4804281;29;20062;-55
2023/03/12 05:14:00;;;;;;;30.35;4.50;;;7.00;99.90;;;;;;4815140;29;20053;-58
2023/03/12 05:16:29;;;;;;;47.00;4.85;;;7.00;99.90;;;;;;4822587;29;20066;-54
2023/03/12 05:18:57;;;;;;;27.52;3.35;;;7.00;99.90;;;;;;4822834;29;20384;-58
2023/03/12 05:21:25;;;;;;;33.15;4.10;;;7.00;99.90;;;;;;4820845;29;20050;-56
2023/03/12 05:23:56;;;;;;;31.95;3.85;;;7.00;99.90;;;;;;4822490;29;20499;-58
2023/03/12 05:26:30;;;;;;;24.88;4.97;;;7.00;99.90;;;;;;4818288;29;20380;-55
2023/03/12 05:29:12;;;;;;;38.63;4.38;;;;;;;;;;4822041;29;20062;-58
2023/03/12 05:31:40;;;;;;;24.10;4.07;;;7.00;99.90;;;;;;4807717;29;20055;-55
2023/03/12 05:34:11;;;;;;;36.00;3.60;;;7.00;99.90;;;;;;4822568;29;20054;-58
2023/03/12 05:36:42;;;;;;;23.02;4.38;;;7.00;99.90;;;;;;4821931;29;20049;-54
2023/03/12 05:39:11;;;;;;;32.30;6.10;;;7.00;99.90;;;;;;4804342;29;20058;-56
2023/03/12 05:41:39;;;;;;;30.02;4.65;;;6.90;99.90;;;;;;4804541;29;20435;-55
2023/03/12 05:44:14;;;;;;;16.58;2.80;;;6.90;99.90;;;;;;4805734;29;20051;-59
2023/03/12 05:46:49;;;;;;;19.20;4.07;;;7.00;99.90;;;;;;4822342;29;20054;-55
2023/03/12 05:49:16;;;;;;;39.00;3.70;;;7.00;99.90;;;;;;4799961;29;20055;-54
2023/03/12 05:51:49;;;;;;;25.10;4.85;;;6.90;99.90;;;;;;4801035;29;20051;-54
2023/03/12 05:54:19;;;;;;;28.17;3.13;;;6.90;99.90;;;;;;4788294;29;20511;-54
2023/03/12 05:56:49;;;;;;;26.45;3.63;;;6.90;99.90;;;;;;4803913;29;20055;-53
2023/03/12 05:59:17;;;;;;;26.45;3.80;;;6.90;99.90;;;;;;4836399;29;20046;-53
2023/03/12 06:01:45;;;;;;;21.38;4.05;;;6.80;99.90;;;;;;4822021;29;20046;-54
2023/03/12 06:04:14;;;;;;;24.13;3.35;;;6.80;99.90;;;;;;4808252;29;20062;-54
2023/03/12 06:06:41;;;;;;;28.58;3.95;;;6.80;99.90;;;;;;4819879;29;20043;-53
2023/03/12 06:09:09;;;;;;;35.95;4.32;;;;;;;;;;4844903;29;20053;-54
2023/03/12 06:11:37;;;;;;;22.80;2.70;;;6.70;99.90;;;;;;4835220;29;20060;-54
2023/03/12 06:14:05;;;;;;;39.63;4.32;;;6.60;99.90;;;;;;4827926;29;20370;-54
2023/03/12 06:16:35;;;;;;;34.50;4.53;;;6.50;99.90;;;;;;4815199;29;20451;-54
2023/03/12 06:19:04;;;;;;;28.40;3.40;;;6.50;99.90;;;;;;4810759;29;20046;-54
2023/03/12 06:21:34;;;;;;;26.23;4.05;;;6.50;99.90;;;;;;4815515;29;20061;-56
2023/03/12 06:24:05;;;;;;;26.95;4.15;;;6.40;99.90;;;;;;4832348;29;20053;-57
2023/03/12 06:26:48;;;;;;;37.92;4.82;;;6.40;99.90;;;;;;4801451;29;20396;-54
2023/03/12 06:29:16;;;;;;;35.92;4.25;;;6.40;99.90;;;;;;4804071;29;20055;-54
2023/03/12 06:31:44;;;;;;;42.22;6.00;;;6.40;99.90;;;;;;4817316;29;20050;-55
2023/03/12 06:34:12;;;;;;;21.15;3.45;;;6.40;99.90;;;;;;4812432;29;20046;-54
2023/03/12 06:36:39;;;;;;;34.08;4.50;;;6.40;99.90;;;;;;4827627;29;20049;-54
2023/03/12 06:39:08;;;;;;;35.70;4.35;;;6.40;99.90;;;;;;4828203;29;20415;-54
2023/03/12 06:41:36;;;;;;;34.13;3.75;;;6.40;99.90;;;;;;4818211;29;20062;-55
2023/03/12 06:44:04;;;;;;;23.85;4.30;;;6.40;99.90;;;;;;4836095;29;20060;-54
2023/03/12 06:46:33;;;;;;;22.95;3.40;;;6.30;99.90;;;;;;4820904;29;20063;-54
2023/03/12 06:49:00;;;;;;;25.45;4.30;;;6.30;99.90;;;;;;4817965;29;20063;-55
2023/03/12 06:51:28;;;;;;;36.00;3.80;;;6.30;99.90;;;;;;4801513;29;20065;-55
2023/03/12 06:53:56;;;;;;;32.47;4.75;;;6.30;99.90;;;;;;4832756;29;20054;-55
2023/03/12 06:56:24;;;;;;;28.23;3.92;;;6.30;99.90;;;;;;4808161;29;20054;-55
2023/03/12 06:58:51;;;;;;;29.33;3.97;;;6.20;99.90;;;;;;4829260;29;20053;-55
2023/03/12 07:01:19;;;;;;;41.85;4.50;;;6.20;99.90;;;;;;4804630;29;20062;-55
2023/03/12 07:03:47;;;;;;;27.48;5.28;;;6.20;99.90;;;;;;4825976;29;20054;-56
2023/03/12 07:06:20;;;;;;;30.45;3.08;;;6.20;99.90;;;;;;4825843;29;20057;-54
2023/03/12 07:08:48;;;;;;;33.22;5.57;;;6.20;99.90;;;;;;4823633;29;20258;-54
2023/03/12 07:11:16;;;;;;;31.05;4.50;;;6.20;99.90;;;;;;4834760;29;20053;-55
2023/03/12 07:13:44;;;;;;;37.40;3.72;;;6.20;99.90;;;;;;4818388;29;20484;-58
2023/03/12 07:16:13;;;;;;;36.95;5.72;;;6.20;99.90;;;;;;4806954;29;20058;-55
2023/03/12 07:18:41;;;;;;;30.45;4.00;;;6.20;99.90;;;;;;4821526;29;20047;-54
2023/03/12 07:21:09;;;;;;;26.80;2.80;;;6.20;99.90;;;;;;4811925;29;20058;-55
2023/03/12 07:23:37;;;;;;;22.05;2.50;;;6.20;99.90;;;;;;4823827;29;20046;-54
2023/03/12 07:26:04;;;;;;;27.52;3.08;;;6.20;99.90;;;;;;4833842;29;20050;-54
2023/03/12 07:28:32;;;;;;;28.50;3.28;;;6.30;99.90;;;;;;4824154;29;20396;-54
2023/03/12 07:31:02;;;;;;;20.00;2.95;;;6.30;99.90;;;;;;4808453;29;20050;-55
2023/03/12 07:33:31;;;;;;;24.30;3.20;;;6.30;99.90;;;;;;4820007;29;20057;-57
2023/03/12 07:35:59;;;;;;;41.28;4.47;;;6.40;99.90;;;;;;4837568;29;20125;-55
2023/03/12 07:38:27;;;;;;;29.92;4.88;;;6.40;99.90;;;;;;4827084;29;20112;-56
2023/03/12 07:40:57;;;;;;;32.33;4.00;;;6.50;99.90;;;;;;4819200;29;20047;-55
2023/03/12 07:43:25;;;;;;;27.90;4.88;;;6.50;99.90;;;;;;4818225;29;20624;-57
2023/03/12 07:45:54;;;;;;;34.50;3.60;;;6.50;99.90;;;;;;4816253;29;20043;-55
2023/03/12 07:48:22;;;;;;;21.33;2.88;;;6.50;99.90;;;;;;4822266;29;20054;-53
2023/03/12 07:50:49;;;;;;;37.67;4.22;;;6.70;99.90;;;;;;4818746;29;20066;-54
2023/03/12 07:53:18;;;;;;;20.65;3.65;;;6.70;99.90;;;;;;4826300;29;20065;-54
2023/03/12 07:55:47;;;;;;;22.25;3.85;;;6.80;99.90;;;;;;4809782;29;20257;-54
2023/03/12 07:58:16;;;;;;;27.02;3.83;;;7.00;99.90;;;;;;4817222;29;20061;-54
2023/03/12 08:00:44;;;;;;;26.60;3.13;;;7.00;99.90;;;;;;4814849;29;20483;-54
2023/03/12 08:03:12;;;;;;;36.83;5.93;;;7.10;99.90;;;;;;4816111;29;20295;-55
2023/03/12 08:05:40;;;;;;;38.40;4.13;;;7.20;99.90;;;;;;4809469;29;20050;-57
2023/03/12 08:08:08;;;;;;;26.52;3.58;;;7.40;99.90;;;;;;4826342;29;20051;-55
2023/03/12 08:10:36;;;;;;;19.38;3.92;;;7.50;99.90;;;;;;4814676;29;20062;-56
2023/03/12 08:13:04;;;;;;;26.70;4.15;;;7.70;99.90;;;;;;4821765;29;20046;-54
2023/03/12 08:15:32;;;;;;;24.35;3.15;;;7.70;99.90;;;;;;4814596;29;20062;-51
2023/03/12 08:18:00;;;;;;;30.05;3.45;;;7.90;99.90;;;;;;4823935;29;20058;-56
2023/03/12 08:20:29;;;;;;;21.45;2.90;;;8.00;99.90;;;;;;4817124;29;20526;-55
2023/03/12 08:22:57;;;;;;;24.70;3.35;;;8.00;99.90;;;;;;4815469;29;20403;-55
2023/03/12 08:25:24;;;;;;;25.45;2.78;;;8.20;99.90;;;;;;4836653;29;20061;-58
2023/03/12 08:27:52;;;;;;;19.10;3.05;;;;;;;;;;4815649;29;20573;-55
2023/03/12 08:30:20;;;;;;;37.25;5.03;;;8.20;99.90;;;;;;4820119;29;20068;-55
2023/03/12 08:32:48;;;;;;;36.88;4.75;;;8.20;99.90;;;;;;4825356;29;20376;-55
2023/03/12 08:35:16;;;;;;;26.42;3.55;;;8.20;99.90;;;;;;4835997;29;20426;-57
2023/03/12 08:37:43;;;;;;;24.05;3.00;;;8.20;99.90;;;;;;4833760;29;20050;-55
2023/03/12 08:40:12;;;;;;;30.55;3.75;;;8.20;99.90;;;;;;4830981;29;20054;-54
2023/03/12 08:42:42;;;;;;;31.25;4.60;;;8.20;99.90;;;;;;4823829;29;20502;-54
2023/03/12 08:45:14;;;;;;;15.93;2.67;;;8.20;99.90;;;;;;4834291;29;20046;-55
2023/03/12 08:47:43;;;;;;;24.10;3.20;;;8.10;99.90;;;;;;4836313;29;20066;-54
2023/03/12 08:50:13;;;;;;;30.33;4.35;;;8.20;99.90;;;;;;4816896;29;20061;-54
2023/03/12 08:52:40;;;;;;;33.67;3.30;;;8.30;99.90;;;;;;4812326;29;20043;-54
2023/03/12 08:55:10;;;;;;;32.55;3.50;;;8.30;99.90;;;;;;4836620;29;20050;-54
2023/03/12 08:57:38;;;;;;;36.38;4.97;;;8.40;99.90;;;;;;4820155;29;20054;-53
2023/03/12 09:00:10;;;;;;;29.48;3.92;;;8.50;99.90;;;;;;4822623;29;20053;-55
2023/03/12 09:02:38;;;;;;;13.35;2.65;;;8.50;99.90;;;;;;4811778;29;20053;-54
2023/03/12 09:05:06;;;;;;;28.45;3.65;;;8.50;99.90;;;;;;4806757;29;20507;-54
2023/03/12 09:07:34;;;;;;;22.60;2.97;;;8.50;99.90;;;;;;4808795;29;20475;-54
2023/03/12 09:10:02;;;;;;;30.25;2.65;;;8.50;99.90;;;;;;4815008;29;20046;-53
2023/03/12 09:12:30;;;;;;;19.48;3.75;;;8.60;99.90;;;;;;4821833;29;20057;-54
2023/03/12 09:14:57;;;;;;;30.45;4.18;;;8.60;99.90;;;;;;4808487;29;20085;-54
2023/03/12 09:17:31;;;;;;;28.33;3.42;;;8.70;99.90;;;;;;4817473;29;20069;-54
2023/03/12 09:19:59;;;;;;;23.92;3.35;;;8.80;99.90;;;;;;4819347;29;20522;-55
2023/03/12 09:22:29;;;;;;;19.95;2.63;;;8.90;99.90;;;;;;4803945;29;20332;-55
2023/03/12 09:24:57;;;;;;;31.13;3.92;;;9.00;99.90;;;;;;4834745;29;20050;-55
2023/03/12 09:27:24;;;;;;;22.10;2.20;;;9.00;99.90;;;;;;4819446;29;20046;-55
2023/03/12 09:29:55;;;;;;;24.52;3.10;;;9.10;99.90;;;;;;4835372;29;20049;-54
2023/03/12 09:32:27;;;;;;;25.80;3.33;;;9.10;99.90;;;;;;4801812;29;20054;-53
2023/03/12 09:34:55;;;;;;;14.27;2.35;;;9.10;99.90;;;;;;4822568;29;20067;-54
2023/03/12 09:37:23;;;;;;;22.98;4.18;;;9.20;99.90;;;;;;4813526;29;20054;-54
2023/03/12 09:39:52;;;;;;;25.90;3.85;;;9.20;99.90;;;;;;4802056;29;20130;-57
2023/03/12 09:42:27;;;;;;;30.35;3.40;;;9.20;99.90;;;;;;4822463;29;20398;-56
2023/03/12 09:44:57;;;;;;;20.00;3.75;;;9.30;99.90;;;;;;4822677;29;20069;-55
2023/03/12 09:47:36;;;;;;;19.92;3.17;;;9.30;99.90;;;;;;4805471;29;20411;-57
2023/03/12 09:50:25;;;;;;;30.95;4.60;;;9.30;99.90;;;;;;4806475;29;20054;-58
2023/03/12 09:53:01;;;;;;;27.37;3.80;;;9.40;99.90;;;;;;4806131;29;20054;-55
2023/03/12 09:55:37;;;;;;;23.08;3.85;;;9.40;99.90;;;;;;4821018;29;20058;-56
2023/03/12 09:58:26;;;;;;;26.83;3.95;;;9.50;99.90;;;;;;4816091;29;20490;-57
2023/03/12 10:01:11;;;;;;;32.55;4.28;;;9.60;99.90;;;;;;4802154;29;20147;-54
2023/03/12 10:04:13;;;;;;;25.17;3.15;;;9.60;99.90;;;;;;4812105;29;20050;-54
2023/03/12 10:06:50;;;;;;;36.20;4.95;;;9.70;99.90;;;;;;4830577;29;20054;-55
2023/03/12 10:09:36;;;;;;;30.25;2.83;;;9.80;99.90;;;;;;4812954;29;20047;-55
2023/03/12 10:12:18;;;;;;;29.70;3.80;;;10.00;99.90;;;;;;4812755;29;20057;-54
2023/03/12 10:15:23;;;;;;;24.35;3.03;;;10.00;99.90;;;;;;4811096;29;20549;-54
2023/03/12 10:18:05;;;;;;;35.03;3.38;;;10.10;99.90;;;;;;4812286;29;20054;-54
2023/03/12 10:20:52;;;;;;;28.83;3.60;;;10.30;99.90;;;;;;4815537;29;20403;-56
2023/03/12 10:23:23;;;;;;;22.52;3.30;;;10.30;99.90;;;;;;4819232;29;20051;-54
2023/03/12 10:26:11;;;;;;;24.42;3.13;;;10.50;99.90;;;;;;4818571;29;20133;-54
2023/03/12 10:28:47;;;;;;;36.75;4.38;;;10.60;99.90;;;;;;4830694;29;20525;-54
2023/03/12 10:31:25;;;;;;;25.67;3.72;;;10.70;99.90;;;;;;4807173;29;20059;-57
2023/03/12 10:33:59;;;;;;;24.65;4.00;;;10.90;99.90;;;;;;4827616;29;20487;-56
2023/03/12 10:36:38;;;;;;;22.67;3.72;;;10.90;99.90;;;;;;4815025;29;20046;-58
2023/03/12 10:39:14;;;;;;;;;;;11.00;99.90;;;;;;4810031;29;20050;-54
2023/03/12 10:41:44;;;;;;;25.13;3.05;;;11.10;99.90;;;;;;4813854;29;19924;-57
2023/03/12 10:44:20;;;;;;;23.98;3.45;;;11.10;99.90;;;;;;4818617;29;20047;-54
2023/03/12 10:46:50;;;;;;;21.27;3.80;;;11.10;99.90;;;;;;4799939;29;20502;-55
2023/03/12 10:49:21;;;;;;;23.13;3.92;;;11.20;99.90;;;;;;4807635;29;20063;-58
2023/03/12 10:51:55;;;;;;;26.42;3.22;;;11.30;99.90;;;;;;4801762;29;20480;-56
2023/03/12 10:54:27;;;;;;;20.05;3.58;;;11.20;99.90;;;;;;4808988;29;20058;-55
2023/03/12 10:56:55;;;;;;;26.38;3.97;;;11.30;99.90;;;;;;4812561;29;20065;-54
2023/03/12 10:59:28;;;;;;;23.75;3.85;;;11.40;99.90;;;;;;4811495;29;20058;-54
2023/03/12 11:01:56;;;;;;;17.33;3.17;;;11.40;99.90;;;;;;4797869;29;20062;-54
2023/03/12 11:04:30;;;;;;;20.52;3.05;;;11.50;99.90;;;;;;4815880;29;20054;-54
2023/03/12 11:07:22;;;;;;;16.08;2.97;;;11.60;99.90;;;;;;4812855;29;20054;-58
2023/03/12 11:10:16;;;;;;;34.55;3.83;;;11.70;99.90;;;;;;4808335;29;20042;-55
2023/03/12 11:12:59;;;;;;;26.27;4.15;;;12.00;99.90;;;;;;4816293;29;20058;-55
2023/03/12 11:15:31;;;;;;;32.58;3.53;;;12.00;99.90;;;;;;4823877;29;20411;-59
2023/03/12 11:18:20;;;;;;;23.77;3.17;;;12.10;99.90;;;;;;4817819;29;20643;-58
2023/03/12 11:20:51;;;;;;;23.90;3.38;;;12.10;99.90;;;;;;4814416;29;20046;-57
2023/03/12 11:23:29;;;;;;;25.27;2.45;;;12.20;99.90;;;;;;4813345;29;20074;-59
2023/03/12 11:26:10;;;;;;;20.27;2.38;;;12.20;99.90;;;;;;4814639;29;20049;-58
2023/03/12 11:28:43;;;;;;;23.88;3.25;;;12.40;99.90;;;;;;4817351;29;20055;-55
2023/03/12 11:31:18;;;;;;;22.60;4.20;;;12.50;99.90;;;;;;4804033;29;20054;-56
2023/03/12 11:33:46;;;;;;;27.40;4.13;;;12.70;99.90;;;;;;4821861;29;20049;-54
2023/03/12 11:36:24;;;;;;;18.05;3.83;;;12.80;99.90;;;;;;4805372;29;20051;-55
2023/03/12 11:39:09;;;;;;;21.42;4.82;;;13.00;99.90;;;;;;4815803;29;20074;-54
2023/03/12 11:41:36;;;;;;;26.25;4.15;;;13.10;99.90;;;;;;4799583;29;20039;-57
2023/03/12 11:44:13;;;;;;;21.63;2.67;;;13.10;99.90;;;;;;4816113;29;20055;-54
2023/03/12 11:46:52;;;;;;;21.83;2.72;;;13.00;99.90;;;;;;4809719;29;20050;-55
2023/03/12 11:49:46;;;;;;;26.30;3.08;;;12.90;99.90;;;;;;4810763;29;20043;-55
2023/03/12 11:52:30;;;;;;;19.10;3.55;;;12.80;99.90;;;;;;4800958;29;20049;-55
2023/03/12 11:55:13;;;;;;;28.48;3.20;;;12.60;99.90;;;;;;4803152;29;20444;-56
2023/03/12 11:57:57;;;;;;;21.98;2.65;;;12.60;99.90;;;;;;4804249;29;20070;-55
2023/03/12 12:00:51;;;;;;;27.48;3.55;;;12.40;99.90;;;;;;4801927;29;20442;-54
2023/03/12 12:03:19;;;;;;;20.25;3.08;;;;;;;;;;4821650;29;20049;-54
2023/03/12 12:05:53;;;;;;;22.25;4.50;;;12.70;99.90;;;;;;4818536;29;20069;-55
2023/03/12 12:08:52;;;;;;;20.20;2.72;;;13.00;99.90;;;;;;4824168;29;20533;-54
2023/03/12 12:11:44;;;;;;;20.87;3.77;;;13.30;99.90;;;;;;4805411;29;20674;-58
2023/03/12 12:14:48;;;;;;;26.40;2.75;;;13.80;99.90;;;;;;4831157;29;20054;-56
2023/03/12 12:17:24;;;;;;;22.70;3.58;;;13.90;99.90;;;;;;4836782;29;20487;-54
2023/03/12 12:20:20;;;;;;;22.67;3.28;;;13.80;99.90;;;;;;4822694;29;20046;-55
2023/03/12 12:22:56;;;;;;;17.75;3.00;;;14.00;99.90;;;;;;4827040;29;20633;-55
2023/03/12 12:25:29;;;;;;;30.58;3.38;;;14.20;99.90;;;;;;4834194;29;20047;-56
2023/03/12 12:28:15;;;;;;;12.57;2.47;;;14.30;99.90;;;;;;4828046;29;20422;-56
2023/03/12 12:31:20;;;;;;;23.95;4.05;;;14.30;99.90;;;;;;4804471;29;20114;-56
2023/03/12 12:34:06;;;;;;;17.98;2.33;;;14.10;99.90;;;;;;4829280;29;20068;-58
2023/03/12 12:36:35;;;;;;;15.85;2.38;;;14.10;99.90;;;;;;4820081;29;20706;-56
2023/03/12 12:39:25;;;;;;;19.42;2.67;;;13.90;99.90;;;;;;4818147;29;20050;-57
2023/03/12 12:41:54;;;;;;;;;;;13.80;99.90;;;;;;4809555;29;20062;-55
2023/03/12 12:44:35;;;;;;;15.65;3.03;;;13.60;99.90;;;;;;4837880;29;19932;-55
2023/03/12 12:47:05;;;;;;;15.85;2.55;;;13.50;99.90;;;;;;4839167;29;20406;-55
2023/03/12 12:49:56;;;;;;;24.77;3.83;;;13.50;99.90;;;;;;4816246;29;20046;-56
2023/03/12 12:52:25;;;;;;;23.20;4.22;;;13.50;99.90;;;;;;4805001;29;20704;-56
2023/03/12 12:54:56;;;;;;;18.90;2.80;;;13.50;99.90;;;;;;4822390;29;20538;-54
2023/03/12 12:57:35;;;;;;;19.13;2.50;;;13.70;99.90;;;;;;4819450;29;21541;-55
2023/03/12 13:00:41;;;;;;;23.05;3.40;;;13.90;99.90;;;;;;4814625;29;20050;-57
2023/03/12 13:03:16;;;;;;;21.77;3.08;;;13.90;99.90;;;;;;4825348;29;20375;-58
2023/03/12 13:05:53;;;;;;;25.92;4.68;;;13.90;99.90;;;;;;4804417;29;20058;-57
2023/03/12 13:08:43;;;;;;;22.70;2.78;;;14.00;99.90;;;;;;4829787;29;20045;-55
2023/03/12 13:11:13;;;;;;;26.60;3.25;;;14.20;99.90;;;;;;4803552;29;20075;-57
2023/03/12 13:14:04;;;;;;;17.23;3.58;;;14.20;99.90;;;;;;4833490;29;20050;-55